Oak Springs, Arizona
Current Conditions -  °F | °C
As of 1:53 PM on Friday 26 Dec 2014 (Local Time) from KRQE Reporting Station
Overcast Overcast  
Wind Chill: 14°   Ceiling: 3800
Heat Index: 26°   Visibility: 10mi
Dew Point: 14°   Wind: 14mph
Humidity: 60%   Direction: 240°WSW
Pressure: 29.85"   Gusts: NA
Location:  35.2918°N, 109.157°W
Report Text: KRQE 262053Z AUTO 24012KT 10SM FEW028 BKN038 OVC048 M03/M10 A2985 RMK AO2 SNB05E36 SLP114 P0000 60000 T10331100 53003 TSNO
Loading
Personal Weather Stations






























Interactive Weather Map New forecast layout! Learn more

10-Day Weather Forecast

Advertisements
Track Severe Weather on mobile